sensor_id;sensor_type;location;lat;lon;timestamp;pressure;altitude;pressure_sealevel;temperature;humidity
7824;BME280;3957;48.61947800;9.05303100;2023-03-20T00:00:49;96280.50;;;6.62;100.00
7824;BME280;3957;48.61947800;9.05303100;2023-03-20T00:01:50;96275.84;;;6.64;100.00
7824;BME280;3957;48.61947800;9.05303100;2023-03-20T00:02:51;96272.78;;;6.76;100.00
7824;BME280;3957;48.61947800;9.05303100;2023-03-20T00:03:51;96273.81;;;6.98;100.00
7824;BME280;3957;48.61947800;9.05303100;2023-03-20T00:04:52;96278.72;;;7.09;100.00
7824;BME280;3957;48.61947800;9.05303100;2023-03-20T00:05:52;96274.31;;;7.02;100.00
7824;BME280;3957;48.61947800;9.05303100;2023-03-20T00:06:52;96275.31;;;7.01;100.00
7824;BME280;3957;48.61947800;9.05303100;2023-03-20T00:07:53;96279.25;;;6.81;100.00
7824;BME280;3957;48.61947800;9.05303100;2023-03-20T00:08:55;96279.84;;;6.92;100.00
7824;BME280;3957;48.61947800;9.05303100;2023-03-20T00:09:56;96290.84;;;7.12;100.00
7824;BME280;3957;48.61947800;9.05303100;2023-03-20T00:10:57;96286.88;;;7.08;100.00
7824;BME280;3957;48.61947800;9.05303100;2023-03-20T00:11:58;96283.91;;;7.03;100.00
7824;BME280;3957;48.61947800;9.05303100;2023-03-20T00:12:59;96285.69;;;6.87;100.00
7824;BME280;3957;48.61947800;9.05303100;2023-03-20T00:14:06;96289.44;;;6.70;100.00
7824;BME280;3957;48.61947800;9.05303100;2023-03-20T00:15:19;96285.53;;;6.57;100.00
7824;BME280;3957;48.61947800;9.05303100;2023-03-20T00:16:23;96291.50;;;6.59;100.00
7824;BME280;3957;48.61947800;9.05303100;2023-03-20T00:17:24;96290.50;;;6.60;100.00
7824;BME280;3957;48.61947800;9.05303100;2023-03-20T00:18:24;96284.50;;;6.58;100.00
7824;BME280;3957;48.61947800;9.05303100;2023-03-20T00:19:27;96283.50;;;6.59;100.00
7824;BME280;3957;48.61947800;9.05303100;2023-03-20T00:20:28;96287.16;;;6.58;100.00
7824;BME280;3957;48.61947800;9.05303100;2023-03-20T00:21:29;96287.34;;;6.57;100.00
7824;BME280;3957;48.61947800;9.05303100;2023-03-20T00:22:29;96285.63;;;6.64;100.00
7824;BME280;3957;48.61947800;9.05303100;2023-03-20T00:23:31;96283.66;;;6.66;100.00
7824;BME280;3957;48.61947800;9.05303100;2023-03-20T00:24:32;96281.09;;;6.81;100.00
7824;BME280;3957;48.61947800;9.05303100;2023-03-20T00:25:32;96279.38;;;6.88;100.00
7824;BME280;3957;48.61947800;9.05303100;2023-03-20T00:26:34;96280.00;;;6.90;100.00
7824;BME280;3957;48.61947800;9.05303100;2023-03-20T00:27:35;96282.16;;;6.95;100.00
7824;BME280;3957;48.61947800;9.05303100;2023-03-20T00:28:41;96283.97;;;6.94;100.00
7824;BME280;3957;48.61947800;9.05303100;2023-03-20T00:29:43;96283.75;;;6.81;100.00
7824;BME280;3957;48.61947800;9.05303100;2023-03-20T00:30:43;96285.91;;;6.77;100.00
7824;BME280;3957;48.61947800;9.05303100;2023-03-20T00:31:44;96287.47;;;6.63;100.00
7824;BME280;3957;48.61947800;9.05303100;2023-03-20T00:32:45;96286.50;;;6.64;100.00
7824;BME280;3957;48.61947800;9.05303100;2023-03-20T00:33:45;96285.19;;;6.60;100.00
7824;BME280;3957;48.61947800;9.05303100;2023-03-20T00:34:46;96283.88;;;6.56;100.00
7824;BME280;3957;48.61947800;9.05303100;2023-03-20T00:35:46;96283.75;;;6.81;100.00
7824;BME280;3957;48.61947800;9.05303100;2023-03-20T00:36:48;96288.06;;;6.74;100.00
7824;BME280;3957;48.61947800;9.05303100;2023-03-20T00:37:50;96284.06;;;6.78;100.00
7824;BME280;3957;48.61947800;9.05303100;2023-03-20T00:38:51;96281.50;;;6.61;100.00
7824;BME280;3957;48.61947800;9.05303100;2023-03-20T00:39:51;96287.13;;;6.67;100.00
7824;BME280;3957;48.61947800;9.05303100;2023-03-20T00:40:51;96288.06;;;6.74;100.00
7824;BME280;3957;48.61947800;9.05303100;2023-03-20T00:42:58;96283.66;;;6.66;100.00
7824;BME280;3957;48.61947800;9.05303100;2023-03-20T00:44:14;96289.91;;;6.73;100.00
7824;BME280;3957;48.61947800;9.05303100;2023-03-20T00:45:19;96290.13;;;6.63;100.00
7824;BME280;3957;48.61947800;9.05303100;2023-03-20T00:46:20;96292.13;;;6.61;100.00
7824;BME280;3957;48.61947800;9.05303100;2023-03-20T00:47:22;96293.97;;;6.61;100.00
7824;BME280;3957;48.61947800;9.05303100;2023-03-20T00:48:23;96298.81;;;6.57;100.00
7824;BME280;3957;48.61947800;9.05303100;2023-03-20T00:49:26;96288.22;;;6.49;100.00
7824;BME280;3957;48.61947800;9.05303100;2023-03-20T00:50:29;96290.88;;;6.49;100.00
7824;BME280;3957;48.61947800;9.05303100;2023-03-20T00:51:31;96292.63;;;6.65;100.00
7824;BME280;3957;48.61947800;9.05303100;2023-03-20T00:52:32;96288.34;;;6.56;100.00
7824;BME280;3957;48.61947800;9.05303100;2023-03-20T00:53:32;96289.38;;;6.55;100.00
7824;BME280;3957;48.61947800;9.05303100;2023-03-20T00:54:32;96288.13;;;6.66;100.00
7824;BME280;3957;48.61947800;9.05303100;2023-03-20T00:55:33;96283.69;;;6.58;100.00
7824;BME280;3957;48.61947800;9.05303100;2023-03-20T00:56:39;96289.69;;;6.52;100.00
7824;BME280;3957;48.61947800;9.05303100;2023-03-20T00:58:43;96287.25;;;6.42;100.00
7824;BME280;3957;48.61947800;9.05303100;2023-03-20T01:00:52;96297.56;;;6.45;100.00
7824;BME280;3957;48.61947800;9.05303100;2023-03-20T01:01:52;96290.91;;;6.41;100.00
7824;BME280;3957;48.61947800;9.05303100;2023-03-20T01:02:55;96290.91;;;6.41;100.00
7824;BME280;3957;48.61947800;9.05303100;2023-03-20T01:03:58;96292.91;;;6.39;100.00
7824;BME280;3957;48.61947800;9.05303100;2023-03-20T01:05:00;96294.75;;;6.38;100.00
7824;BME280;3957;48.61947800;9.05303100;2023-03-20T01:06:00;96289.94;;;6.34;100.00
7824;BME280;3957;48.61947800;9.05303100;2023-03-20T01:07:01;96291.78;;;6.33;100.00
7824;BME280;3957;48.61947800;9.05303100;2023-03-20T01:08:01;96295.25;;;6.34;100.00
7824;BME280;3957;48.61947800;9.05303100;2023-03-20T01:09:02;96286.25;;;6.43;100.00
7824;BME280;3957;48.61947800;9.05303100;2023-03-20T01:10:04;96293.72;;;6.39;100.00
7824;BME280;3957;48.61947800;9.05303100;2023-03-20T01:11:05;96291.59;;;6.74;100.00
7824;BME280;3957;48.61947800;9.05303100;2023-03-20T01:12:05;96283.88;;;6.56;100.00
7824;BME280;3957;48.61947800;9.05303100;2023-03-20T01:13:18;96286.91;;;6.45;100.00
7824;BME280;3957;48.61947800;9.05303100;2023-03-20T01:14:19;96296.44;;;6.62;100.00
7824;BME280;3957;48.61947800;9.05303100;2023-03-20T01:15:22;96289.38;;;6.55;100.00
7824;BME280;3957;48.61947800;9.05303100;2023-03-20T01:16:25;96291.03;;;6.47;100.00
7824;BME280;3957;48.61947800;9.05303100;2023-03-20T01:17:27;96292.06;;;6.46;100.00
7824;BME280;3957;48.61947800;9.05303100;2023-03-20T01:18:28;96290.75;;;6.42;100.00
7824;BME280;3957;48.61947800;9.05303100;2023-03-20T01:19:28;96295.84;;;6.52;100.00
7824;BME280;3957;48.61947800;9.05303100;2023-03-20T01:20:29;96298.66;;;6.59;100.00
7824;BME280;3957;48.61947800;9.05303100;2023-03-20T01:21:30;96294.75;;;6.70;100.00
7824;BME280;3957;48.61947800;9.05303100;2023-03-20T01:22:30;96299.81;;;6.56;100.00
7824;BME280;3957;48.61947800;9.05303100;2023-03-20T01:23:30;96297.94;;;6.65;100.00
7824;BME280;3957;48.61947800;9.05303100;2023-03-20T01:24:31;96299.25;;;6.69;100.00
7824;BME280;3957;48.61947800;9.05303100;2023-03-20T01:25:31;96297.91;;;6.73;100.00
7824;BME280;3957;48.61947800;9.05303100;2023-03-20T01:27:37;96288.38;;;7.10;100.00
7824;BME280;3957;48.61947800;9.05303100;2023-03-20T01:28:38;96292.50;;;6.90;100.00
7824;BME280;3957;48.61947800;9.05303100;2023-03-20T01:29:38;96290.81;;;6.89;100.00
7824;BME280;3957;48.61947800;9.05303100;2023-03-20T01:30:39;96291.31;;;6.92;100.00
7824;BME280;3957;48.61947800;9.05303100;2023-03-20T01:31:39;96289.13;;;6.96;100.00
7824;BME280;3957;48.61947800;9.05303100;2023-03-20T01:32:41;96292.31;;;6.91;100.00
7824;BME280;3957;48.61947800;9.05303100;2023-03-20T01:33:43;96290.72;;;7.05;100.00
7824;BME280;3957;48.61947800;9.05303100;2023-03-20T01:34:44;96285.22;;;7.07;100.00
7824;BME280;3957;48.61947800;9.05303100;2023-03-20T01:35:46;96290.97;;;6.95;100.00
7824;BME280;3957;48.61947800;9.05303100;2023-03-20T01:36:50;96286.75;;;7.01;100.00
7824;BME280;3957;48.61947800;9.05303100;2023-03-20T01:37:53;96291.84;;;7.11;100.00
7824;BME280;3957;48.61947800;9.05303100;2023-03-20T01:38:56;96290.91;;;7.04;100.00
7824;BME280;3957;48.61947800;9.05303100;2023-03-20T01:39:58;96297.63;;;6.91;100.00
7824;BME280;3957;48.61947800;9.05303100;2023-03-20T01:41:05;96292.50;;;6.90;100.00
7824;BME280;3957;48.61947800;9.05303100;2023-03-20T01:42:13;96300.47;;;6.90;100.00
7824;BME280;3957;48.61947800;9.05303100;2023-03-20T01:43:18;96292.13;;;6.93;100.00
7824;BME280;3957;48.61947800;9.05303100;2023-03-20T01:44:25;96290.00;;;6.88;100.00
7824;BME280;3957;48.61947800;9.05303100;2023-03-20T01:45:34;96295.81;;;6.92;100.00
7824;BME280;3957;48.61947800;9.05303100;2023-03-20T01:46:36;96294.56;;;6.79;100.00
7824;BME280;3957;48.61947800;9.05303100;2023-03-20T01:47:47;96295.81;;;6.60;100.00
7824;BME280;3957;48.61947800;9.05303100;2023-03-20T01:51:12;96295.81;;;6.60;100.00
7824;BME280;3957;48.61947800;9.05303100;2023-03-20T01:52:12;96297.16;;;6.56;100.00
7824;BME280;3957;48.61947800;9.05303100;2023-03-20T01:53:16;96295.47;;;6.63;100.00
7824;BME280;3957;48.61947800;9.05303100;2023-03-20T01:54:29;96296.31;;;6.87;100.00
7824;BME280;3957;48.61947800;9.05303100;2023-03-20T01:55:40;96296.28;;;6.64;100.00
7824;BME280;3957;48.61947800;9.05303100;2023-03-20T01:56:47;96289.31;;;6.63;100.00
7824;BME280;3957;48.61947800;9.05303100;2023-03-20T01:57:51;96292.47;;;6.58;100.00
7824;BME280;3957;48.61947800;9.05303100;2023-03-20T01:59:04;96295.16;;;6.58;100.00
7824;BME280;3957;48.61947800;9.05303100;2023-03-20T02:00:12;96298.72;;;6.74;100.00
7824;BME280;3957;48.61947800;9.05303100;2023-03-20T02:01:17;96289.69;;;6.83;100.00
7824;BME280;3957;48.61947800;9.05303100;2023-03-20T02:02:22;96293.97;;;6.61;100.00
7824;BME280;3957;48.61947800;9.05303100;2023-03-20T02:03:24;96298.03;;;6.80;100.00
7824;BME280;3957;48.61947800;9.05303100;2023-03-20T02:04:41;96299.03;;;6.79;100.00
7824;BME280;3957;48.61947800;9.05303100;2023-03-20T02:05:45;96302.09;;;6.68;100.00
7824;BME280;3957;48.61947800;9.05303100;2023-03-20T02:06:46;96298.88;;;6.49;100.00
7824;BME280;3957;48.61947800;9.05303100;2023-03-20T02:08:22;96305.19;;;6.40;100.00
7824;BME280;3957;48.61947800;9.05303100;2023-03-20T02:09:25;96302.72;;;6.38;100.00
7824;BME280;3957;48.61947800;9.05303100;2023-03-20T02:10:26;96304.03;;;6.42;100.00
7824;BME280;3957;48.61947800;9.05303100;2023-03-20T02:11:36;96299.91;;;6.32;100.00
7824;BME280;3957;48.61947800;9.05303100;2023-03-20T02:12:37;96306.88;;;6.41;100.00
7824;BME280;3957;48.61947800;9.05303100;2023-03-20T02:13:39;96305.78;;;6.58;100.00
7824;BME280;3957;48.61947800;9.05303100;2023-03-20T02:14:40;96306.00;;;6.49;100.00
7824;BME280;3957;48.61947800;9.05303100;2023-03-20T02:17:16;96307.91;;;6.32;100.00
7824;BME280;3957;48.61947800;9.05303100;2023-03-20T02:18:26;96309.66;;;6.39;100.00
7824;BME280;3957;48.61947800;9.05303100;2023-03-20T02:22:29;96309.56;;;6.33;100.00
7824;BME280;3957;48.61947800;9.05303100;2023-03-20T02:43:50;96305.72;;;6.27;100.00
7824;BME280;3957;48.61947800;9.05303100;2023-03-20T02:46:35;96305.56;;;6.37;100.00
7824;BME280;3957;48.61947800;9.05303100;2023-03-20T02:49:00;96304.28;;;6.16;100.00
7824;BME280;3957;48.61947800;9.05303100;2023-03-20T02:50:24;96301.13;;;6.12;100.00
7824;BME280;3957;48.61947800;9.05303100;2023-03-20T02:51:39;96304.63;;;6.05;100.00
7824;BME280;3957;48.61947800;9.05303100;2023-03-20T02:52:59;96301.94;;;6.13;100.00
7824;BME280;3957;48.61947800;9.05303100;2023-03-20T02:56:49;96309.38;;;6.34;100.00
7824;BME280;3957;48.61947800;9.05303100;2023-03-20T02:58:15;96301.88;;;6.38;100.00
7824;BME280;3957;48.61947800;9.05303100;2023-03-20T02:59:42;96303.41;;;6.24;100.00
7824;BME280;3957;48.61947800;9.05303100;2023-03-20T03:01:02;96301.47;;;6.18;100.00
7824;BME280;3957;48.61947800;9.05303100;2023-03-20T03:02:15;96297.84;;;6.10;100.00
7824;BME280;3957;48.61947800;9.05303100;2023-03-20T03:03:24;96307.63;;;6.10;100.00
7824;BME280;3957;48.61947800;9.05303100;2023-03-20T03:04:40;96307.28;;;6.05;100.00
7824;BME280;3957;48.61947800;9.05303100;2023-03-20T03:05:49;96310.63;;;6.07;100.00
7824;BME280;3957;48.61947800;9.05303100;2023-03-20T03:06:54;96312.28;;;6.08;100.00
7824;BME280;3957;48.61947800;9.05303100;2023-03-20T03:07:57;96314.28;;;5.98;100.00
7824;BME280;3957;48.61947800;9.05303100;2023-03-20T03:09:16;96308.81;;;5.99;100.00
7824;BME280;3957;48.61947800;9.05303100;2023-03-20T03:10:29;96309.63;;;6.08;100.00
7824;BME280;3957;48.61947800;9.05303100;2023-03-20T03:11:35;96309.78;;;6.15;100.00
7824;BME280;3957;48.61947800;9.05303100;2023-03-20T03:12:39;96309.78;;;6.15;100.00
7824;BME280;3957;48.61947800;9.05303100;2023-03-20T03:13:49;96318.03;;;6.28;100.00
7824;BME280;3957;48.61947800;9.05303100;2023-03-20T03:14:54;96314.16;;;6.47;100.00
7824;BME280;3957;48.61947800;9.05303100;2023-03-20T03:15:59;96315.09;;;6.54;100.00
7824;BME280;3957;48.61947800;9.05303100;2023-03-20T03:17:04;96322.09;;;6.55;100.00
7824;BME280;3957;48.61947800;9.05303100;2023-03-20T03:18:11;96320.22;;;6.64;100.00
7824;BME280;3957;48.61947800;9.05303100;2023-03-20T03:19:20;96317.25;;;6.59;100.00
7824;BME280;3957;48.61947800;9.05303100;2023-03-20T03:20:28;96317.28;;;6.51;100.00
7824;BME280;3957;48.61947800;9.05303100;2023-03-20T03:21:32;96319.13;;;6.42;100.00
7824;BME280;3957;48.61947800;9.05303100;2023-03-20T03:22:34;96316.66;;;6.40;100.00
7824;BME280;3957;48.61947800;9.05303100;2023-03-20T03:23:47;96318.03;;;6.28;100.00
7824;BME280;3957;48.61947800;9.05303100;2023-03-20T03:24:49;96319.47;;;6.47;100.00
7824;BME280;3957;48.61947800;9.05303100;2023-03-20T03:25:52;96325.47;;;6.41;100.00
7824;BME280;3957;48.61947800;9.05303100;2023-03-20T03:26:57;96314.66;;;6.42;100.00
7824;BME280;3957;48.61947800;9.05303100;2023-03-20T03:29:08;96330.72;;;6.57;100.00
7824;BME280;3957;48.61947800;9.05303100;2023-03-20T03:30:17;96322.88;;;6.64;100.00
7824;BME280;3957;48.61947800;9.05303100;2023-03-20T03:31:19;96330.34;;;6.69;100.00
7824;BME280;3957;48.61947800;9.05303100;2023-03-20T03:32:25;96333.22;;;6.59;100.00
7824;BME280;3957;48.61947800;9.05303100;2023-03-20T03:33:29;96328.69;;;6.68;100.00
7824;BME280;3957;48.61947800;9.05303100;2023-03-20T03:34:33;96332.72;;;6.55;100.00
7824;BME280;3957;48.61947800;9.05303100;2023-03-20T03:35:34;96328.75;;;6.51;100.00
7824;BME280;3957;48.61947800;9.05303100;2023-03-20T03:37:58;96337.53;;;6.52;100.00
7824;BME280;3957;48.61947800;9.05303100;2023-03-20T03:39:31;96330.41;;;6.52;100.00
7824;BME280;3957;48.61947800;9.05303100;2023-03-20T03:46:05;96334.91;;;6.43;100.00
7824;BME280;3957;48.61947800;9.05303100;2023-03-20T03:47:18;96336.41;;;6.46;100.00
7824;BME280;3957;48.61947800;9.05303100;2023-03-20T03:48:34;96334.81;;;6.28;100.00
7824;BME280;3957;48.61947800;9.05303100;2023-03-20T03:49:42;96340.72;;;6.47;100.00
7824;BME280;3957;48.61947800;9.05303100;2023-03-20T03:50:52;96334.63;;;6.38;100.00
7824;BME280;3957;48.61947800;9.05303100;2023-03-20T03:51:56;96334.66;;;6.30;100.00
7824;BME280;3957;48.61947800;9.05303100;2023-03-20T03:53:03;96337.66;;;6.19;100.00
7824;BME280;3957;48.61947800;9.05303100;2023-03-20T03:54:09;96336.84;;;6.10;100.00
7824;BME280;3957;48.61947800;9.05303100;2023-03-20T03:55:15;96334.66;;;6.22;100.00
7824;BME280;3957;48.61947800;9.05303100;2023-03-20T03:56:22;96339.16;;;6.13;100.00
7824;BME280;3957;48.61947800;9.05303100;2023-03-20T03:57:30;96337.69;;;6.10;100.00
7824;BME280;3957;48.61947800;9.05303100;2023-03-20T03:58:37;96336.09;;;6.41;100.00
7824;BME280;3957;48.61947800;9.05303100;2023-03-20T03:59:42;96341.31;;;6.26;100.00
7824;BME280;3957;48.61947800;9.05303100;2023-03-20T04:00:46;96333.81;;;6.21;100.00
7824;BME280;3957;48.61947800;9.05303100;2023-03-20T04:01:51;96343.31;;;6.16;100.00
7824;BME280;3957;48.61947800;9.05303100;2023-03-20T04:02:54;96341.50;;;6.08;100.00
7824;BME280;3957;48.61947800;9.05303100;2023-03-20T04:03:57;96338.31;;;6.21;100.00
7824;BME280;3957;48.61947800;9.05303100;2023-03-20T04:05:02;96346.31;;;6.12;100.00
7824;BME280;3957;48.61947800;9.05303100;2023-03-20T04:06:07;96350.97;;;6.19;100.00
7824;BME280;3957;48.61947800;9.05303100;2023-03-20T04:07:09;96347.44;;;6.18;100.00
7824;BME280;3957;48.61947800;9.05303100;2023-03-20T04:08:10;96347.75;;;6.32;100.00
7824;BME280;3957;48.61947800;9.05303100;2023-03-20T04:09:10;96347.44;;;6.18;100.00
7824;BME280;3957;48.61947800;9.05303100;2023-03-20T04:10:12;96353.88;;;6.32;100.00
7824;BME280;3957;48.61947800;9.05303100;2023-03-20T04:11:22;96341.75;;;6.38;100.00
7824;BME280;3957;48.61947800;9.05303100;2023-03-20T04:12:35;96347.44;;;6.26;100.00
7824;BME280;3957;48.61947800;9.05303100;2023-03-20T04:13:36;96350.09;;;6.26;100.00
7824;BME280;3957;48.61947800;9.05303100;2023-03-20T04:14:36;96348.13;;;6.20;100.00
7824;BME280;3957;48.61947800;9.05303100;2023-03-20T04:15:37;96354.13;;;6.06;100.00
7824;BME280;3957;48.61947800;9.05303100;2023-03-20T04:16:39;96353.13;;;5.99;100.00
7824;BME280;3957;48.61947800;9.05303100;2023-03-20T04:17:39;96352.31;;;6.06;100.00
7824;BME280;3957;48.61947800;9.05303100;2023-03-20T04:18:42;96349.94;;;6.20;100.00
7824;BME280;3957;48.61947800;9.05303100;2023-03-20T04:19:45;96348.97;;;6.12;100.00
7824;BME280;3957;48.61947800;9.05303100;2023-03-20T04:20:46;96348.78;;;6.14;100.00
7824;BME280;3957;48.61947800;9.05303100;2023-03-20T04:21:46;96353.28;;;6.13;100.00
7824;BME280;3957;48.61947800;9.05303100;2023-03-20T04:22:48;96348.44;;;6.17;100.00
7824;BME280;3957;48.61947800;9.05303100;2023-03-20T04:23:50;96354.28;;;6.12;100.00
7824;BME280;3957;48.61947800;9.05303100;2023-03-20T04:24:51;96350.47;;;6.07;100.00
7824;BME280;3957;48.61947800;9.05303100;2023-03-20T04:25:52;96347.13;;;6.13;100.00
7824;BME280;3957;48.61947800;9.05303100;2023-03-20T04:26:52;96346.75;;;6.33;100.00
7824;BME280;3957;48.61947800;9.05303100;2023-03-20T04:27:53;96339.50;;;6.10;100.00
7824;BME280;3957;48.61947800;9.05303100;2023-03-20T04:29:12;96345.31;;;5.97;100.00
7824;BME280;3957;48.61947800;9.05303100;2023-03-20T04:30:24;96349.16;;;6.03;100.00
7824;BME280;3957;48.61947800;9.05303100;2023-03-20T04:31:43;96349.13;;;5.94;100.00
7824;BME280;3957;48.61947800;9.05303100;2023-03-20T04:32:51;96340.00;;;5.97;100.00
7824;BME280;3957;48.61947800;9.05303100;2023-03-20T04:33:59;96335.50;;;5.89;100.00
7824;BME280;3957;48.61947800;9.05303100;2023-03-20T04:35:14;96333.88;;;5.88;100.00
7824;BME280;3957;48.61947800;9.05303100;2023-03-20T04:36:21;96328.69;;;5.95;100.00
7824;BME280;3957;48.61947800;9.05303100;2023-03-20T04:37:24;96333.19;;;5.86;100.00
7824;BME280;3957;48.61947800;9.05303100;2023-03-20T04:38:34;96334.19;;;5.77;100.00
7824;BME280;3957;48.61947800;9.05303100;2023-03-20T04:39:35;96323.91;;;5.74;100.00
7824;BME280;3957;48.61947800;9.05303100;2023-03-20T04:40:36;96332.41;;;5.61;100.00
7824;BME280;3957;48.61947800;9.05303100;2023-03-20T04:41:37;96330.06;;;5.66;100.00
7824;BME280;3957;48.61947800;9.05303100;2023-03-20T04:42:37;96326.91;;;5.54;100.00
7824;BME280;3957;48.61947800;9.05303100;2023-03-20T04:43:39;96327.44;;;5.41;100.00
7824;BME280;3957;48.61947800;9.05303100;2023-03-20T04:44:40;96332.06;;;5.31;100.00
7824;BME280;3957;48.61947800;9.05303100;2023-03-20T04:45:41;96324.94;;;5.23;100.00
7824;BME280;3957;48.61947800;9.05303100;2023-03-20T04:46:43;96328.22;;;5.17;100.00
7824;BME280;3957;48.61947800;9.05303100;2023-03-20T04:47:48;96326.91;;;5.21;100.00
7824;BME280;3957;48.61947800;9.05303100;2023-03-20T04:48:50;96337.03;;;5.34;100.00
7824;BME280;3957;48.61947800;9.05303100;2023-03-20T04:49:50;96336.38;;;5.24;100.00
7824;BME280;3957;48.61947800;9.05303100;2023-03-20T04:50:52;96335.84;;;5.20;100.00
7824;BME280;3957;48.61947800;9.05303100;2023-03-20T04:51:58;96336.34;;;5.16;100.00
7824;BME280;3957;48.61947800;9.05303100;2023-03-20T04:53:10;96332.88;;;5.15;100.00
7824;BME280;3957;48.61947800;9.05303100;2023-03-20T04:54:10;96341.69;;;5.32;100.00
7824;BME280;3957;48.61947800;9.05303100;2023-03-20T04:55:11;96340.34;;;5.28;100.00
7824;BME280;3957;48.61947800;9.05303100;2023-03-20T04:56:11;96334.72;;;5.31;100.00
7824;BME280;3957;48.61947800;9.05303100;2023-03-20T04:57:12;96338.34;;;5.38;100.00
7824;BME280;3957;48.61947800;9.05303100;2023-03-20T04:58:13;96340.69;;;5.25;100.00
7824;BME280;3957;48.61947800;9.05303100;2023-03-20T04:59:14;96340.16;;;5.21;100.00
7824;BME280;3957;48.61947800;9.05303100;2023-03-20T05:00:15;96338.84;;;5.17;100.00
7824;BME280;3957;48.61947800;9.05303100;2023-03-20T05:01:16;96340.69;;;5.25;100.00
7824;BME280;3957;48.61947800;9.05303100;2023-03-20T05:02:17;96345.81;;;5.26;100.00
7824;BME280;3957;48.61947800;9.05303100;2023-03-20T05:03:17;96350.94;;;5.20;100.00
7824;BME280;3957;48.61947800;9.05303100;2023-03-20T05:04:18;96346.78;;;5.17;100.00
7824;BME280;3957;48.61947800;9.05303100;2023-03-20T05:05:18;96354.59;;;5.19;100.00
7824;BME280;3957;48.61947800;9.05303100;2023-03-20T05:06:19;96347.47;;;5.36;100.00
7824;BME280;3957;48.61947800;9.05303100;2023-03-20T05:07:20;96346.31;;;5.30;100.00
7824;BME280;3957;48.61947800;9.05303100;2023-03-20T05:08:33;96359.09;;;5.26;100.00
7824;BME280;3957;48.61947800;9.05303100;2023-03-20T05:09:34;96351.94;;;5.27;100.00
7824;BME280;3957;48.61947800;9.05303100;2023-03-20T05:10:37;96356.75;;;5.40;100.00
7824;BME280;3957;48.61947800;9.05303100;2023-03-20T05:12:03;96357.59;;;5.32;100.00
7824;BME280;3957;48.61947800;9.05303100;2023-03-20T05:13:16;96354.28;;;5.38;100.00
7824;BME280;3957;48.61947800;9.05303100;2023-03-20T05:14:35;96357.59;;;5.40;100.00
7824;BME280;3957;48.61947800;9.05303100;2023-03-20T05:15:54;96367.56;;;5.63;100.00
7824;BME280;3957;48.61947800;9.05303100;2023-03-20T05:17:15;96363.91;;;5.64;100.00
7824;BME280;3957;48.61947800;9.05303100;2023-03-20T05:18:46;96363.28;;;5.54;100.00
7824;BME280;3957;48.61947800;9.05303100;2023-03-20T05:20:09;96364.09;;;5.71;100.00
7824;BME280;3957;48.61947800;9.05303100;2023-03-20T05:21:36;96370.91;;;5.82;100.00
7824;BME280;3957;48.61947800;9.05303100;2023-03-20T05:23:03;96378.34;;;5.78;100.00
7824;BME280;3957;48.61947800;9.05303100;2023-03-20T05:24:23;96369.88;;;5.83;100.00
7824;BME280;3957;48.61947800;9.05303100;2023-03-20T05:25:40;96375.53;;;5.79;100.00
7824;BME280;3957;48.61947800;9.05303100;2023-03-20T05:26:57;96378.19;;;5.79;100.00
7824;BME280;3957;48.61947800;9.05303100;2023-03-20T05:28:16;96373.22;;;5.76;100.00
7824;BME280;3957;48.61947800;9.05303100;2023-03-20T05:29:25;96373.72;;;5.72;100.00
7824;BME280;3957;48.61947800;9.05303100;2023-03-20T05:30:44;96370.38;;;5.78;100.00
7824;BME280;3957;48.61947800;9.05303100;2023-03-20T05:31:45;96366.41;;;5.74;100.00
7824;BME280;3957;48.61947800;9.05303100;2023-03-20T05:32:59;96365.59;;;5.73;100.00
7824;BME280;3957;48.61947800;9.05303100;2023-03-20T05:34:02;96365.06;;;5.70;100.00
7824;BME280;3957;48.61947800;9.05303100;2023-03-20T05:35:34;96364.91;;;5.71;100.00
7824;BME280;3957;48.61947800;9.05303100;2023-03-20T05:36:46;96363.91;;;5.72;100.00
7824;BME280;3957;48.61947800;9.05303100;2023-03-20T05:37:59;96361.09;;;5.66;100.00
7824;BME280;3957;48.61947800;9.05303100;2023-03-20T05:39:18;96355.28;;;5.70;100.00
7824;BME280;3957;48.61947800;9.05303100;2023-03-20T05:40:58;96355.78;;;5.66;100.00
7824;BME280;3957;48.61947800;9.05303100;2023-03-20T05:42:10;96354.28;;;5.55;100.00
7824;BME280;3957;48.61947800;9.05303100;2023-03-20T05:43:22;96356.94;;;5.55;100.00
7824;BME280;3957;48.61947800;9.05303100;2023-03-20T05:44:46;96357.09;;;5.45;100.00
7824;BME280;3957;48.61947800;9.05303100;2023-03-20T05:46:13;96361.25;;;5.39;100.00
7824;BME280;3957;48.61947800;9.05303100;2023-03-20T05:47:40;96355.59;;;5.42;100.00
7824;BME280;3957;48.61947800;9.05303100;2023-03-20T05:49:19;96355.59;;;5.42;100.00
7824;BME280;3957;48.61947800;9.05303100;2023-03-20T05:50:37;96364.25;;;5.44;100.00
7824;BME280;3957;48.61947800;9.05303100;2023-03-20T05:51:47;96364.56;;;5.33;100.00
7824;BME280;3957;48.61947800;9.05303100;2023-03-20T05:53:10;96367.69;;;5.28;100.00
7824;BME280;3957;48.61947800;9.05303100;2023-03-20T05:54:44;96371.06;;;5.55;100.00
7824;BME280;3957;48.61947800;9.05303100;2023-03-20T05:56:03;96363.41;;;5.52;100.00
7824;BME280;3957;48.61947800;9.05303100;2023-03-20T05:57:23;96371.50;;;5.34;100.00
7824;BME280;3957;48.61947800;9.05303100;2023-03-20T05:58:47;96378.31;;;5.37;100.00
7824;BME280;3957;48.61947800;9.05303100;2023-03-20T06:00:14;96380.63;;;5.32;100.00
7824;BME280;3957;48.61947800;9.05303100;2023-03-20T06:01:41;96387.16;;;5.45;100.00
7824;BME280;3957;48.61947800;9.05303100;2023-03-20T06:02:54;96387.16;;;5.54;100.00
7824;BME280;3957;48.61947800;9.05303100;2023-03-20T06:04:13;96383.81;;;5.52;100.00